.
WxDataArchive / Data Records for 2012-06-15
2012-06-14 June 2012 2012-06-16

Data Records for Friday, 15 June 2012

Time	Temp	Chill	HIndex	Humid	Dewpt	 Wind 	HiWind	WindDir	Rain 	Barom 
-----	----	-----	------	-----	-----	------	------	-------	-----	----- 
00:00	67.9	67.9	67.9	58	52.6	2	3	90	0.00	30.084 
00:05	67.8	67.8	67.8	59	52.9	0	2	90	0.00	30.084 
00:10	67.4	67.4	67.4	59	52.6	1	4	90	0.00	30.084 
00:15	67.3	67.3	67.3	59	52.5	2	4	90	0.00	30.094 
00:20	67.1	67.1	67.1	59	52.3	2	6	90	0.00	30.094 
00:25	66.9	66.9	66.9	60	52.6	1	3	90	0.00	30.094 
00:30	66.6	66.6	66.6	60	52.3	2	5	90	0.00	30.089 
00:35	66.4	66.4	66.4	60	52.1	1	3	90	0.00	30.089 
00:40	66.1	66.1	66.1	60	51.8	1	3	90	0.00	30.089 
00:45	66.0	66.0	66.0	61	52.2	1	5	90	0.00	30.090 
00:50	65.8	65.8	65.8	60	51.5	1	5	68	0.00	30.090 
00:55	65.6	65.6	65.6	60	51.3	2	5	68	0.00	30.090 
01:00	65.5	65.5	65.5	60	51.2	1	2	90	0.00	30.094 
01:05	65.3	65.3	65.3	60	51.1	1	2	90	0.00	30.094 
01:10	65.2	65.2	65.2	60	51.0	1	3	90	0.00	30.094 
01:15	65.0	65.0	65.0	61	51.2	1	3	90	0.00	30.092 
01:20	64.7	64.7	64.7	61	50.9	1	3	90	0.00	30.092 
01:25	64.5	64.5	64.5	61	50.7	1	3	90	0.00	30.092 
01:30	64.3	64.3	64.3	61	50.6	1	3	90	0.00	30.095 
01:35	64.2	64.2	64.2	60	50.0	1	2	90	0.00	30.095 
01:40	64.0	64.0	64.0	61	50.3	0	2	90	0.00	30.095 
01:45	63.9	63.9	63.9	60	49.7	0	2	90	0.00	30.097 
01:50	63.7	63.7	63.7	61	50.0	0	2	90	0.00	30.097 
01:55	63.5	63.5	63.5	61	49.8	0	1	90	0.00	30.097 
02:00	63.2	63.2	63.2	61	49.5	0	1	90	0.00	30.106 
02:05	63.1	63.1	63.1	62	49.9	0	1	90	0.00	30.106 
02:10	62.9	62.9	62.9	62	49.7	0	2	90	0.00	30.106 
02:15	62.7	62.7	62.7	62	49.5	0	2	90	0.00	30.094 
02:20	62.7	62.7	62.7	61	49.1	0	3	90	0.00	30.094 
02:25	62.4	62.4	62.4	62	49.2	0	0	---	0.00	30.094 
02:30	62.1	62.1	62.1	62	48.9	0	1	90	0.00	30.096 
02:35	62.0	62.0	62.0	62	48.8	0	1	90	0.00	30.096 
02:40	62.0	62.0	62.0	62	48.8	0	2	90	0.00	30.096 
02:45	61.8	61.8	61.8	63	49.1	0	0	---	0.00	30.092 
02:50	61.6	61.6	61.6	63	48.9	0	0	---	0.00	30.092 
02:55	61.3	61.3	61.3	64	49.0	0	0	---	0.00	30.092 
03:00	61.2	61.2	61.2	64	48.9	0	0	---	0.00	30.088 
03:05	60.9	60.9	60.9	64	48.6	0	0	---	0.00	30.088 
03:10	60.5	60.5	60.5	65	48.7	0	0	---	0.00	30.088 
03:15	60.2	60.2	60.2	66	48.8	0	0	---	0.00	30.086 
03:20	59.9	59.9	59.9	67	48.9	0	0	---	0.00	30.086 
03:25	59.8	59.8	59.8	68	49.2	0	0	---	0.00	30.086 
03:30	59.6	59.6	59.6	68	49.0	0	0	---	0.00	30.084 
03:35	59.5	59.5	59.5	69	49.3	0	0	---	0.00	30.084 
03:40	59.3	59.3	59.3	69	49.1	0	0	---	0.00	30.084 
03:45	59.2	59.2	59.2	69	49.0	0	0	---	0.00	30.085 
03:50	59.0	59.0	59.0	70	49.2	0	0	---	0.00	30.085 
03:55	58.9	58.9	58.9	71	49.5	0	0	---	0.00	30.085 
04:00	58.6	58.6	58.6	71	49.2	0	0	---	0.00	30.082 
04:05	58.4	58.4	58.4	72	49.4	0	0	---	0.00	30.082 
04:10	58.1	58.1	58.1	72	49.1	0	0	---	0.00	30.082 
04:15	58.0	58.0	58.0	72	49.0	0	0	---	0.00	30.082 
04:20	57.8	57.8	57.8	73	49.2	0	0	---	0.00	30.082 
04:25	57.6	57.6	57.6	73	49.0	0	0	---	0.00	30.082 
04:30	57.5	57.5	57.5	73	48.9	0	0	---	0.00	30.095 
04:35	57.2	57.2	57.2	74	49.0	0	0	---	0.00	30.095 
04:40	57.0	57.0	57.0	74	48.8	0	0	---	0.00	30.095 
04:45	56.9	56.9	56.9	74	48.7	0	0	---	0.00	30.099 
04:50	56.7	56.7	56.7	75	48.9	0	0	---	0.00	30.099 
04:55	56.6	56.6	56.6	75	48.8	0	0	---	0.00	30.099 
05:00	56.6	56.6	56.6	76	49.1	0	0	---	0.00	30.109 
05:05	56.5	56.5	56.5	76	49.0	0	0	---	0.00	30.109 
05:10	56.5	56.5	56.5	77	49.4	0	0	---	0.00	30.109 
05:15	56.3	56.3	56.3	77	49.2	0	0	---	0.00	30.114 
05:20	56.3	56.3	56.3	78	49.5	0	0	---	0.00	30.114 
05:25	56.2	56.2	56.2	78	49.4	0	0	---	0.00	30.114 
05:30	56.0	56.0	56.0	79	49.6	0	0	---	0.00	30.115 
05:35	55.9	55.9	55.9	79	49.5	0	0	---	0.00	30.115 
05:40	55.7	55.7	55.7	80	49.6	0	0	---	0.00	30.115 
05:45	55.7	55.7	55.7	80	49.6	0	0	---	0.00	30.116 
05:50	55.6	55.6	55.6	80	49.5	0	0	---	0.00	30.116 
05:55	55.4	55.4	55.4	81	49.7	0	1	90	0.00	30.116 
06:00	55.7	55.7	55.7	81	50.0	0	2	90	0.00	30.117 
06:05	56.0	56.0	56.0	80	49.9	0	1	90	0.00	30.117 
06:10	56.2	56.2	56.2	79	49.8	0	0	---	0.00	30.117 
06:15	56.2	56.2	56.2	79	49.8	0	1	90	0.00	30.118 
06:20	56.2	56.2	56.2	79	49.8	0	0	---	0.00	30.118 
06:25	56.2	56.2	56.2	79	49.8	0	0	---	0.00	30.118 
06:30	56.2	56.2	56.2	79	49.8	0	1	90	0.00	30.122 
06:35	56.2	56.2	56.2	79	49.8	0	1	90	0.00	30.122 
06:40	56.3	56.3	56.3	80	50.2	0	1	90	0.00	30.122 
06:45	56.5	56.5	56.5	79	50.1	0	1	90	0.00	30.131 
06:50	56.6	56.6	56.6	79	50.2	0	1	90	0.00	30.131 
06:55	56.9	56.9	56.9	79	50.5	0	2	90	0.00	30.131 
07:00	57.2	57.2	57.2	79	50.7	0	2	90	0.00	30.134 
07:05	57.5	57.5	57.5	78	50.7	0	1	90	0.00	30.134 
07:10	57.6	57.6	57.6	78	50.8	0	0	---	0.00	30.134 
07:15	57.8	57.8	57.8	79	51.3	0	1	90	0.00	30.136 
07:20	58.3	58.3	58.3	78	51.5	0	1	90	0.00	30.136 
07:25	58.9	58.9	58.9	77	51.7	0	1	90	0.00	30.136 
07:30	59.8	59.8	59.8	75	51.9	0	1	90	0.00	30.141 
07:35	60.5	60.5	60.5	73	51.8	0	1	90	0.00	30.141 
07:40	61.3	61.3	61.3	71	51.8	1	3	90	0.00	30.141 
07:45	62.0	62.0	62.0	70	52.1	0	2	90	0.00	30.136 
07:50	62.6	62.6	62.6	68	51.9	0	2	90	0.00	30.136 
07:55	63.2	63.2	63.2	67	52.1	1	2	90	0.00	30.136 
08:00	63.9	63.9	63.9	66	52.3	0	2	90	0.00	30.140 
08:05	64.5	64.5	64.5	65	52.5	0	2	90	0.00	30.140 
08:10	65.0	65.0	65.0	64	52.5	1	3	90	0.00	30.140 
08:15	65.0	65.0	65.0	64	52.5	1	3	90	0.00	30.136 
08:20	65.3	65.3	65.3	63	52.4	0	2	90	0.00	30.136 
08:25	65.8	65.8	65.8	63	52.8	0	2	90	0.00	30.136 
08:30	66.4	66.4	66.4	61	52.5	1	3	90	0.00	30.136 
08:35	67.3	67.3	67.3	59	52.5	1	3	90	0.00	30.136 
08:40	67.6	67.6	67.6	60	53.2	1	3	90	0.00	30.136 
08:45	68.4	68.4	68.4	58	53.0	0	1	90	0.00	30.131 
08:50	69.4	69.4	69.4	56	53.0	0	1	90	0.00	30.131 
08:55	70.6	70.6	70.6	54	53.1	0	2	90	0.00	30.131 
09:00	71.3	71.3	71.3	54	53.8	0	2	90	0.00	30.132 
09:05	71.8	71.8	71.8	53	53.7	1	3	90	0.00	30.132 
09:10	72.0	72.0	72.0	53	53.9	1	3	90	0.00	30.132 
09:15	72.5	72.5	72.5	51	53.3	1	3	90	0.00	30.139 
09:20	73.2	73.2	73.2	50	53.4	0	2	90	0.00	30.139 
09:25	73.7	73.7	73.7	51	54.4	1	4	90	0.00	30.139 
09:30	73.5	73.5	73.5	51	54.2	2	4	90	0.00	30.132 
09:35	73.9	73.9	73.9	49	53.5	1	4	90	0.00	30.132 
09:40	74.2	74.2	74.2	49	53.8	1	3	90	0.00	30.132 
09:45	75.1	75.1	77.7	47	53.5	0	2	90	0.00	30.128 
09:50	75.4	75.4	77.8	48	54.3	2	4	90	0.00	30.128 
09:55	75.8	75.8	77.9	46	53.5	0	2	90	0.00	30.128 
10:00	76.7	76.7	78.3	45	53.7	1	3	112	0.00	30.126 
10:05	77.4	77.4	78.6	45	54.4	1	4	90	0.00	30.126 
10:10	77.6	77.6	78.7	43	53.3	1	3	90	0.00	30.126 
10:15	77.7	77.7	78.7	42	52.8	1	4	90	0.00	30.126 
10:20	78.1	78.1	78.9	43	53.8	0	2	90	0.00	30.126 
10:25	78.8	78.8	79.2	40	52.4	1	3	90	0.00	30.126 
10:30	79.6	79.6	79.7	41	53.8	0	2	90	0.00	30.126 
10:35	80.3	80.3	79.9	37	51.6	1	4	90	0.00	30.126 
10:40	81.1	81.1	80.6	39	53.8	0	2	90	0.00	30.126 
10:45	81.6	81.6	80.6	35	51.3	1	3	90	0.00	30.121 
10:50	81.8	81.8	80.8	35	51.4	1	5	90	0.00	30.121 
10:55	81.8	81.8	80.8	35	51.4	1	3	135	0.00	30.121 
11:00	82.0	82.0	80.8	34	50.8	1	3	135	0.00	30.121 
11:05	82.4	82.4	81.1	34	51.2	1	4	135	0.00	30.121 
11:10	83.2	83.2	81.9	35	52.7	0	1	135	0.00	30.121 
11:15	83.4	83.4	81.7	32	50.4	1	9	90	0.00	30.120 
11:20	83.4	83.4	81.5	30	48.7	2	4	90	0.00	30.120 
11:25	83.4	83.4	81.9	34	52.1	1	2	90	0.00	30.120 
11:30	83.8	83.8	81.7	29	48.1	2	9	90	0.00	30.115 
11:35	83.4	83.4	81.7	32	50.4	2	8	68	0.00	30.115 
11:40	83.4	83.4	81.7	32	50.4	1	4	68	0.00	30.115 
11:45	83.6	83.6	81.7	30	48.9	2	4	68	0.00	30.105 
11:50	83.6	83.6	81.7	30	48.9	1	4	112	0.00	30.105 
11:55	84.1	84.1	82.1	30	49.3	1	3	90	0.00	30.105 
12:00	84.5	84.5	82.3	29	48.7	2	5	90	0.00	30.104 
12:05	84.5	84.5	82.1	27	46.8	1	6	90	0.00	30.104 
12:10	84.7	84.7	82.3	27	47.0	2	9	90	0.00	30.104 
12:15	85.3	85.3	82.8	27	47.5	1	3	90	0.00	30.107 
12:20	85.7	85.7	83.1	27	47.8	1	4	90	0.00	30.107 
12:25	85.9	85.9	83.3	27	48.0	1	4	68	0.00	30.107 
12:30	85.9	85.9	83.3	27	48.0	1	4	68	0.00	30.105 
12:35	86.3	86.3	84.0	30	51.2	1	3	68	0.00	30.105 
12:40	86.3	86.3	83.6	26	47.3	1	7	292	0.00	30.105 
12:45	86.1	86.1	83.4	26	47.2	3	6	68	0.00	30.105 
12:50	86.5	86.5	83.8	27	48.5	0	3	90	0.00	30.105 
12:55	87.0	87.0	84.1	25	46.9	1	4	112	0.00	30.105 
13:00	87.2	87.2	84.3	25	47.1	2	5	68	0.00	30.106 
13:05	86.7	86.7	83.8	25	46.6	2	5	68	0.00	30.106 
13:10	86.7	86.7	83.8	25	46.6	2	5	90	0.00	30.106 
13:15	87.0	87.0	84.0	24	45.8	1	6	90	0.00	30.106 
13:20	87.4	87.4	84.4	25	47.2	1	7	90	0.00	30.106 
13:25	87.4	87.4	84.2	23	45.0	2	7	112	0.00	30.106 
13:30	87.2	87.2	84.2	24	46.0	2	5	112	0.00	30.106 
13:35	87.6	87.6	84.3	22	44.0	1	3	112	0.00	30.106 
13:40	88.2	88.2	85.0	23	45.7	1	4	112	0.00	30.106 
13:45	88.8	88.8	85.6	24	47.3	2	5	90	0.00	30.101 
13:50	88.6	88.6	85.1	21	43.6	3	6	90	0.00	30.101 
13:55	88.4	88.4	85.0	21	43.5	2	4	112	0.00	30.101 
14:00	88.2	88.2	84.8	21	43.3	1	3	112	0.00	30.097 
14:05	88.4	88.4	85.0	22	44.7	2	6	112	0.00	30.097 
14:10	88.4	88.4	85.0	22	44.7	3	9	112	0.00	30.097 
14:15	88.2	88.2	84.8	21	43.3	2	5	90	0.00	30.095 
14:20	88.6	88.6	85.2	22	44.8	1	5	68	0.00	30.095 
14:25	88.8	88.8	85.2	20	42.5	2	6	90	0.00	30.095 
14:30	89.0	89.0	85.4	20	42.7	3	5	90	0.00	30.092 
14:35	89.3	89.3	85.7	20	42.9	1	4	68	0.00	30.092 
14:40	89.5	89.5	85.8	19	41.8	2	6	68	0.00	30.092 
14:45	89.3	89.3	85.7	20	42.9	3	7	90	0.00	30.091 
14:50	89.3	89.3	85.7	20	42.9	3	8	68	0.00	30.091 
14:55	89.5	89.5	85.9	20	43.1	3	7	68	0.00	30.091 
15:00	89.5	89.5	85.9	20	43.1	1	4	68	0.00	30.092 
15:05	89.7	89.7	86.1	20	43.3	1	6	68	0.00	30.092 
15:10	89.7	89.7	86.1	20	43.3	2	6	90	0.00	30.092 
15:15	89.7	89.7	86.2	21	44.5	3	9	90	0.00	30.093 
15:20	89.5	89.5	85.9	20	43.1	2	8	90	0.00	30.093 
15:25	89.3	89.3	85.7	20	42.9	3	7	112	0.00	30.093 
15:30	89.3	89.3	85.7	20	42.9	1	4	68	0.00	30.091 
15:35	89.5	89.5	86.0	21	44.4	2	6	90	0.00	30.091 
15:40	89.7	89.7	86.1	20	43.3	3	7	90	0.00	30.091 
15:45	90.1	90.1	86.4	20	43.6	3	5	90	0.00	30.085 
15:50	90.3	90.3	86.6	20	43.7	1	4	112	0.00	30.085 
15:55	90.3	90.3	86.6	20	43.7	2	7	338	0.00	30.085 
16:00	90.1	90.1	86.4	20	43.6	2	6	68	0.00	30.082 
16:05	90.3	90.3	86.6	20	43.7	1	5	90	0.00	30.082 
16:10	90.5	90.5	86.7	19	42.6	1	5	135	0.00	30.082 
16:15	91.0	91.0	87.4	21	45.6	1	5	135	0.00	30.083 
16:20	91.0	91.0	87.3	20	44.3	2	4	90	0.00	30.083 
16:25	90.7	90.7	87.1	21	45.4	2	6	90	0.00	30.083 
16:30	90.3	90.3	86.7	21	45.0	4	9	90	0.00	30.084 
16:35	89.9	89.9	86.3	21	44.7	3	6	90	0.00	30.084 
16:40	89.7	89.7	86.3	22	45.8	1	3	90	0.00	30.084 
16:45	89.9	89.9	86.3	21	44.7	2	7	90	0.00	30.086 
16:50	90.1	90.1	86.4	20	43.6	1	6	90	0.00	30.086 
16:55	90.5	90.5	87.1	22	46.4	2	4	68	0.00	30.086 
17:00	90.5	90.5	86.9	21	45.2	2	6	68	0.00	30.080 
17:05	90.5	90.5	86.8	20	43.9	1	4	68	0.00	30.080 
17:10	90.3	90.3	86.5	19	42.4	3	6	90	0.00	30.080 
17:15	90.1	90.1	86.3	19	42.2	2	5	90	0.00	30.079 
17:20	90.1	90.1	86.4	20	43.6	2	5	68	0.00	30.079 
17:25	90.3	90.3	86.7	21	45.0	2	6	90	0.00	30.079 
17:30	90.3	90.3	86.6	20	43.7	0	2	68	0.00	30.073 
17:35	90.1	90.1	86.5	21	44.9	3	5	90	0.00	30.073 
17:40	89.9	89.9	86.6	23	47.1	2	5	68	0.00	30.073 
17:45	89.9	89.9	86.3	21	44.7	1	4	112	0.00	30.068 
17:50	89.9	89.9	86.5	22	45.9	1	4	112	0.00	30.068 
17:55	89.9	89.9	86.3	21	44.7	1	5	112	0.00	30.068 
18:00	89.7	89.7	86.3	22	45.8	2	7	90	0.00	30.068 
18:05	89.3	89.3	85.9	22	45.4	2	8	45	0.00	30.068 
18:10	89.0	89.0	85.5	21	44.0	3	7	90	0.00	30.068 
18:15	88.8	88.8	85.3	21	43.8	4	6	68	0.00	30.068 
18:20	88.6	88.6	85.1	21	43.6	2	4	90	0.00	30.068 
18:25	88.6	88.6	85.2	22	44.8	1	4	112	0.00	30.068 
18:30	88.4	88.4	85.0	22	44.7	1	4	90	0.00	30.065 
18:35	88.4	88.4	85.0	22	44.7	2	7	90	0.00	30.065 
18:40	88.4	88.4	85.0	22	44.7	2	6	68	0.00	30.065 
18:45	88.2	88.2	84.8	21	43.3	2	7	112	0.00	30.065 
18:50	88.2	88.2	84.8	21	43.3	1	5	90	0.00	30.065 
18:55	88.0	88.0	84.7	22	44.4	1	5	90	0.00	30.065 
19:00	88.0	88.0	84.7	22	44.4	1	4	68	0.00	30.065 
19:05	88.0	88.0	84.8	23	45.5	1	2	45	0.00	30.065 
19:10	88.0	88.0	84.8	23	45.5	3	7	90	0.00	30.065 
19:15	87.8	87.8	84.6	23	45.4	1	3	112	0.00	30.059 
19:20	87.8	87.8	84.6	23	45.4	1	3	135	0.00	30.059 
19:25	87.6	87.6	84.4	23	45.2	1	3	135	0.00	30.059 
19:30	87.6	87.6	84.5	24	46.3	1	3	68	0.00	30.061 
19:35	87.4	87.4	84.3	24	46.1	2	6	112	0.00	30.061 
19:40	87.2	87.2	84.2	24	46.0	1	5	68	0.00	30.061 
19:45	87.0	87.0	84.0	24	45.8	1	2	68	0.00	30.063 
19:50	87.0	87.0	84.1	25	46.9	0	4	135	0.00	30.063 
19:55	86.7	86.7	83.8	25	46.6	1	7	135	0.00	30.063 
20:00	86.5	86.5	83.6	25	46.5	1	4	135	0.00	30.066 
20:05	86.5	86.5	83.6	25	46.5	0	2	135	0.00	30.066 
20:10	86.3	86.3	83.5	25	46.3	0	1	135	0.00	30.066 
20:15	86.1	86.1	83.4	26	47.2	0	1	135	0.00	30.060 
20:20	85.9	85.9	83.2	26	47.0	0	3	135	0.00	30.060 
20:25	85.5	85.5	83.0	27	47.7	0	2	135	0.00	30.060 
20:30	85.3	85.3	82.8	27	47.5	0	2	135	0.00	30.057 
20:35	84.7	84.7	82.4	28	48.0	0	1	135	0.00	30.057 
20:40	84.3	84.3	82.0	27	46.6	0	1	135	0.00	30.057 
20:45	84.0	84.0	81.7	27	46.4	0	1	135	0.00	30.057 
20:50	83.8	83.8	81.7	28	47.2	0	0	---	0.00	30.057 
20:55	83.4	83.4	81.4	29	47.8	0	1	135	0.00	30.057 
21:00	83.0	83.0	81.1	29	47.4	0	0	---	0.00	30.056 
21:05	82.6	82.6	80.9	30	48.0	0	0	---	0.00	30.056 
21:10	82.2	82.2	80.7	31	48.5	0	0	---	0.00	30.056 
21:15	81.6	81.6	80.3	31	48.0	0	0	---	0.00	30.053 
21:20	81.1	81.1	80.0	32	48.4	0	0	---	0.00	30.053 
21:25	80.5	80.5	79.7	33	48.7	0	0	---	0.00	30.053 
21:30	79.9	79.9	79.4	34	49.0	0	0	---	0.00	30.055 
21:35	79.4	79.4	79.2	35	49.3	0	0	---	0.00	30.055 
21:40	78.8	78.8	78.8	35	48.8	0	0	---	0.00	30.055 
21:45	78.5	78.5	78.7	36	49.3	0	0	---	0.00	30.061 
21:50	77.9	77.9	78.6	38	50.2	0	0	---	0.00	30.061 
21:55	77.4	77.4	78.4	39	50.5	0	0	---	0.00	30.061 
22:00	76.8	76.8	78.1	39	49.9	0	0	---	0.00	30.061 
22:05	76.5	76.5	78.0	40	50.4	0	0	---	0.00	30.061 
22:10	76.1	76.1	77.9	40	50.0	0	0	---	0.00	30.061 
22:15	75.8	75.8	77.8	43	51.7	0	0	---	0.00	30.057 
22:20	75.3	75.3	77.7	45	52.5	0	0	---	0.00	30.057 
22:25	74.7	74.7	74.7	45	51.9	0	0	---	0.00	30.057 
22:30	74.4	74.4	74.4	45	51.7	0	0	---	0.00	30.059 
22:35	74.0	74.0	74.0	45	51.3	0	0	---	0.00	30.059 
22:40	73.9	73.9	73.9	46	51.8	0	0	---	0.00	30.059 
22:45	73.5	73.5	73.5	47	52.0	0	0	---	0.00	30.060 
22:50	73.2	73.2	73.2	47	51.7	0	0	---	0.00	30.060 
22:55	73.0	73.0	73.0	49	52.7	0	0	---	0.00	30.060 
23:00	72.7	72.7	72.7	50	53.0	0	1	135	0.00	30.060 
23:05	72.5	72.5	72.5	51	53.3	0	0	---	0.00	30.060 
23:10	72.5	72.5	72.5	49	52.2	0	2	135	0.00	30.060 
23:15	72.8	72.8	72.8	49	52.5	0	2	135	0.00	30.056 
23:20	73.3	73.3	73.3	50	53.5	1	3	135	0.00	30.056 
23:25	73.9	73.9	73.9	51	54.6	1	4	135	0.00	30.056 
23:30	74.2	74.2	74.2	52	55.4	1	3	135	0.00	30.059 
23:35	74.4	74.4	74.4	53	56.1	1	3	135	0.00	30.059 
23:40	74.4	74.4	74.4	54	56.7	1	3	90	0.00	30.059 
23:45	74.4	74.4	74.4	55	57.2	0	3	90	0.00	30.059 
23:50	74.0	74.0	74.0	56	57.3	0	2	90	0.00	30.059 
23:55	73.9	73.9	73.9	57	57.7	0	2	90	0.00	30.059 

CoCoRaHS
IN-AL-39
A2 Web Hosting
Creative Commons License
GoDaddy
search engine by freefind advanced

loaded 2018-11-12 14:47:46 • last modified 2010-11-18 10:43:29
Privacy PolicyDisclaimer
• wx.awcolley.com is powered by PmWiki v.2002016 •
• all content (unless otherwise noted) © 2018 A W Colley